createdAt,value
2024-04-25T00:00:24.656Z,1132.00
2024-04-25T00:01:24.627Z,1127.00
2024-04-25T00:02:24.654Z,1132.00
2024-04-25T00:03:24.613Z,1130.00
2024-04-25T00:04:24.605Z,1137.00
2024-04-25T00:05:24.573Z,1127.00
2024-04-25T00:06:24.505Z,1126.00
2024-04-25T00:07:24.492Z,1142.00
2024-04-25T00:08:24.487Z,1131.00
2024-04-25T00:09:24.422Z,1127.00
2024-04-25T00:10:24.401Z,1128.00
2024-04-25T00:11:24.405Z,1127.00
2024-04-25T00:12:24.353Z,1132.00
2024-04-25T00:13:24.327Z,1122.00
2024-04-25T00:14:24.331Z,1130.00
2024-04-25T00:15:24.278Z,1129.00
2024-04-25T00:16:24.271Z,1122.00
2024-04-25T00:17:24.247Z,1120.00
2024-04-25T00:18:24.214Z,1130.00
2024-04-25T00:19:24.169Z,1126.00
2024-04-25T00:20:24.138Z,1131.00
2024-04-25T00:21:24.116Z,1120.00
2024-04-25T00:22:24.061Z,1125.00
2024-04-25T00:23:24.045Z,1115.00
2024-04-25T00:24:24.021Z,1113.00
2024-04-25T00:25:23.994Z,1114.00
2024-04-25T00:26:23.988Z,1127.00
2024-04-25T00:27:23.962Z,1122.00
2024-04-25T00:28:23.972Z,1129.00
2024-04-25T00:29:23.940Z,1140.00
2024-04-25T00:30:23.920Z,1121.00
2024-04-25T00:31:23.900Z,1125.00
2024-04-25T00:32:23.944Z,1135.00
2024-04-25T00:33:23.970Z,1123.00
2024-04-25T00:34:23.848Z,1120.00
2024-04-25T00:35:23.866Z,1118.00
2024-04-25T00:36:23.797Z,1124.00
2024-04-25T00:37:23.785Z,1111.00
2024-04-25T00:38:23.834Z,1112.00
2024-04-25T00:39:23.753Z,1113.00
2024-04-25T00:40:23.770Z,1113.00
2024-04-25T00:41:23.756Z,1107.00
2024-04-25T00:42:23.707Z,1116.00
2024-04-25T00:43:23.674Z,1132.00
2024-04-25T00:44:23.670Z,1118.00
2024-04-25T00:45:23.642Z,1113.00
2024-04-25T00:46:23.623Z,1107.00
2024-04-25T00:47:23.760Z,1121.00
2024-04-25T00:48:23.621Z,1122.00
2024-04-25T00:49:23.553Z,1115.00
2024-04-25T00:50:23.557Z,1116.00
2024-04-25T00:51:23.490Z,1126.00
2024-04-25T00:52:23.503Z,1122.00
2024-04-25T00:53:23.484Z,1116.00
2024-04-25T00:54:23.432Z,1122.00
2024-04-25T00:55:23.387Z,1111.00
2024-04-25T00:56:23.417Z,1108.00
2024-04-25T00:57:23.364Z,1110.00
2024-04-25T00:58:23.351Z,1125.00
2024-04-25T00:59:23.364Z,1104.00
2024-04-25T01:00:23.315Z,1106.00
2024-04-25T01:01:23.282Z,1113.00
2024-04-25T01:02:23.356Z,1111.00
2024-04-25T01:03:23.322Z,1129.00
2024-04-25T01:04:23.257Z,1106.00
2024-04-25T01:05:23.290Z,1107.00
2024-04-25T01:06:23.204Z,1116.00
2024-04-25T01:07:23.184Z,1116.00
2024-04-25T01:08:23.206Z,1115.00
2024-04-25T01:09:23.144Z,1112.00
2024-04-25T01:10:23.153Z,1109.00
2024-04-25T01:11:23.216Z,1120.00
2024-04-25T01:12:23.126Z,1118.00
2024-04-25T01:13:23.087Z,1111.00
2024-04-25T01:14:23.191Z,1110.00
2024-04-25T01:15:23.048Z,1107.00
2024-04-25T01:16:23.060Z,1114.00
2024-04-25T01:17:23.041Z,1110.00
2024-04-25T01:18:23.027Z,1108.00
2024-04-25T01:19:23.005Z,1118.00
2024-04-25T01:20:23.021Z,1103.00
2024-04-25T01:21:22.974Z,1119.00
2024-04-25T01:22:22.955Z,1119.00
2024-04-25T01:23:22.960Z,1118.00
2024-04-25T01:24:22.919Z,1112.00
2024-04-25T01:25:22.911Z,1116.00
2024-04-25T01:26:22.990Z,1110.00
2024-04-25T01:27:22.855Z,1108.00
2024-04-25T01:28:22.840Z,1113.00
2024-04-25T01:29:22.984Z,1115.00
2024-04-25T01:30:22.783Z,1106.00
2024-04-25T01:31:22.741Z,1116.00
2024-04-25T01:32:22.711Z,1112.00
2024-04-25T01:33:22.730Z,1116.00
2024-04-25T01:34:22.654Z,1113.00
2024-04-25T01:35:22.673Z,1100.00
2024-04-25T01:36:22.591Z,1103.00
2024-04-25T01:37:22.576Z,1103.00
2024-04-25T01:38:22.540Z,1116.00
2024-04-25T01:39:22.487Z,1112.00
2024-04-25T01:40:22.458Z,1120.00
2024-04-25T01:41:22.467Z,1108.00
2024-04-25T01:42:22.417Z,1116.00
2024-04-25T01:43:22.367Z,1109.00
2024-04-25T01:44:22.414Z,1117.00
2024-04-25T01:45:22.332Z,1100.00
2024-04-25T01:46:22.280Z,1095.00
2024-04-25T01:47:22.369Z,1096.00
2024-04-25T01:48:22.397Z,1102.00
2024-04-25T01:49:22.207Z,1121.00
2024-04-25T01:50:22.192Z,1100.00
2024-04-25T01:51:22.140Z,1105.00
2024-04-25T01:52:22.119Z,1119.00
2024-04-25T01:53:22.111Z,1107.00
2024-04-25T01:54:22.043Z,1117.00
2024-04-25T01:55:22.015Z,1098.00
2024-04-25T01:56:22.053Z,1098.00
2024-04-25T01:57:21.970Z,1105.00
2024-04-25T01:58:21.958Z,1116.00
2024-04-25T01:59:21.946Z,1109.00
2024-04-25T02:00:21.908Z,1104.00
2024-04-25T02:01:21.916Z,1100.00
2024-04-25T02:02:21.966Z,1113.00
2024-04-25T02:03:21.946Z,1100.00
2024-04-25T02:04:21.845Z,1117.00
2024-04-25T02:05:21.885Z,1108.00
2024-04-25T02:06:21.814Z,1098.00
2024-04-25T02:07:21.807Z,1124.00
2024-04-25T02:08:21.808Z,1106.00
2024-04-25T02:09:21.772Z,1111.00
2024-04-25T02:10:21.771Z,1102.00
2024-04-25T02:11:21.793Z,1099.00
2024-04-25T02:12:21.763Z,1100.00
2024-04-25T02:13:21.722Z,1105.00
2024-04-25T02:14:21.737Z,1113.00
2024-04-25T02:15:21.698Z,1110.00
2024-04-25T02:16:21.678Z,1118.00
2024-04-25T02:17:21.703Z,1095.00
2024-04-25T02:18:21.706Z,1093.00
2024-04-25T02:19:21.647Z,1104.00
2024-04-25T02:20:21.714Z,1103.00
2024-04-25T02:21:21.621Z,1114.00
2024-04-25T02:22:21.592Z,1110.00
2024-04-25T02:23:21.584Z,1114.00
2024-04-25T02:24:21.567Z,1108.00
2024-04-25T02:25:21.634Z,1100.00
2024-04-25T02:26:21.576Z,1113.00
2024-04-25T02:27:21.503Z,1102.00
2024-04-25T02:28:21.502Z,1104.00
2024-04-25T02:29:21.489Z,1108.00
2024-04-25T02:30:21.459Z,1110.00
2024-04-25T02:31:21.445Z,1102.00
2024-04-25T02:32:21.521Z,1109.00
2024-04-25T02:33:21.440Z,1101.00
2024-04-25T02:34:21.374Z,1092.00
2024-04-25T02:35:21.401Z,1103.00
2024-04-25T02:36:21.347Z,1102.00
2024-04-25T02:37:21.350Z,1105.00
2024-04-25T02:38:21.350Z,1099.00
2024-04-25T02:39:21.322Z,1100.00
2024-04-25T02:40:21.325Z,1108.00
2024-04-25T02:41:21.329Z,1107.00
2024-04-25T02:42:21.268Z,1086.00
2024-04-25T02:43:21.268Z,1104.00
2024-04-25T02:44:21.285Z,1100.00
2024-04-25T02:45:21.196Z,1108.00
2024-04-25T02:46:21.179Z,1092.00
2024-04-25T02:47:21.229Z,1101.00
2024-04-25T02:48:21.232Z,1095.00
2024-04-25T02:49:21.122Z,1093.00
2024-04-25T02:50:21.166Z,1109.00
2024-04-25T02:51:21.096Z,1105.00
2024-04-25T02:52:21.056Z,1103.00
2024-04-25T02:53:21.076Z,1101.00
2024-04-25T02:54:21.034Z,1108.00
2024-04-25T02:55:21.018Z,1109.00
2024-04-25T02:56:21.037Z,1124.00
2024-04-25T02:57:20.979Z,1107.00
2024-04-25T02:58:20.975Z,1092.00
2024-04-25T02:59:20.978Z,1097.00
2024-04-25T03:00:20.976Z,1091.00
2024-04-25T03:01:20.936Z,1103.00
2024-04-25T03:02:21.060Z,1095.00
2024-04-25T03:03:21.142Z,1106.00
2024-04-25T03:04:20.906Z,1101.00
2024-04-25T03:05:20.954Z,1094.00
2024-04-25T03:06:20.886Z,1100.00
2024-04-25T03:07:20.859Z,1091.00
2024-04-25T03:08:20.948Z,1110.00
2024-04-25T03:09:20.912Z,1089.00
2024-04-25T03:10:20.898Z,1088.00
2024-04-25T03:11:20.957Z,1091.00
2024-04-25T03:12:21.000Z,1096.00
2024-04-25T03:13:20.953Z,1100.00
2024-04-25T03:14:20.976Z,1095.00
2024-04-25T03:15:20.965Z,1097.00
2024-04-25T03:16:20.962Z,1082.00
2024-04-25T03:17:21.017Z,1093.00
2024-04-25T03:18:21.084Z,1083.00
2024-04-25T03:19:21.834Z,1093.00
2024-04-25T03:20:20.998Z,1096.00
2024-04-25T03:21:20.970Z,1093.00
2024-04-25T03:22:20.993Z,1084.00
2024-04-25T03:23:20.990Z,1104.00
2024-04-25T03:24:20.969Z,1082.00
2024-04-25T03:25:20.998Z,1102.00
2024-04-25T03:26:21.006Z,1091.00
2024-04-25T03:27:20.993Z,1097.00
2024-04-25T03:28:21.006Z,1084.00
2024-04-25T03:29:21.048Z,1093.00
2024-04-25T03:30:21.021Z,1101.00
2024-04-25T03:31:21.777Z,1101.00
2024-04-25T03:32:21.104Z,1103.00
2024-04-25T03:33:21.107Z,1085.00
2024-04-25T03:34:21.026Z,1078.00
2024-04-25T03:35:21.075Z,1089.00
2024-04-25T03:36:21.015Z,1086.00
2024-04-25T03:37:21.026Z,1094.00
2024-04-25T03:38:21.103Z,1098.00
2024-04-25T03:39:21.094Z,1096.00
2024-04-25T03:40:21.079Z,1090.00
2024-04-25T03:41:21.137Z,1086.00
2024-04-25T03:42:21.060Z,1101.00
2024-04-25T03:43:21.048Z,1092.00
2024-04-25T03:44:21.138Z,1086.00
2024-04-25T03:45:21.074Z,1092.00
2024-04-25T03:46:21.078Z,1085.00
2024-04-25T03:47:21.152Z,1084.00
2024-04-25T03:48:21.243Z,1084.00
2024-04-25T03:49:21.135Z,1092.00
2024-04-25T03:50:21.146Z,1085.00
2024-04-25T03:51:21.107Z,1091.00
2024-04-25T03:52:21.133Z,1086.00
2024-04-25T03:53:21.144Z,1091.00
2024-04-25T03:54:21.120Z,1090.00
2024-04-25T03:55:21.128Z,1097.00
2024-04-25T03:56:21.189Z,1079.00
2024-04-25T03:57:21.127Z,1094.00
2024-04-25T03:58:21.140Z,1089.00
2024-04-25T03:59:21.156Z,1086.00
2024-04-25T04:00:21.146Z,1084.00
2024-04-25T04:01:21.215Z,1099.00
2024-04-25T04:02:21.202Z,1083.00
2024-04-25T04:03:21.212Z,1085.00
2024-04-25T04:04:21.158Z,1079.00
2024-04-25T04:05:21.284Z,1088.00
2024-04-25T04:06:21.168Z,1088.00
2024-04-25T04:07:21.191Z,1079.00
2024-04-25T04:08:21.257Z,1081.00
2024-04-25T04:09:21.179Z,1076.00
2024-04-25T04:10:21.207Z,1089.00
2024-04-25T04:11:21.294Z,1081.00
2024-04-25T04:12:21.204Z,1080.00
2024-04-25T04:13:21.200Z,1076.00
2024-04-25T04:14:21.238Z,1076.00
2024-04-25T04:15:21.457Z,1075.00
2024-04-25T04:16:21.282Z,1075.00
2024-04-25T04:17:21.223Z,1080.00
2024-04-25T04:18:21.296Z,1073.00
2024-04-25T04:19:21.207Z,1074.00
2024-04-25T04:20:21.218Z,1063.00
2024-04-25T04:21:21.391Z,1079.00
2024-04-25T04:22:21.207Z,1076.00
2024-04-25T04:23:21.288Z,1071.00
2024-04-25T04:24:21.205Z,1079.00
2024-04-25T04:25:21.242Z,1068.00
2024-04-25T04:26:21.231Z,1067.00
2024-04-25T04:27:21.237Z,1067.00
2024-04-25T04:28:21.209Z,1077.00
2024-04-25T04:29:21.261Z,1086.00
2024-04-25T04:30:21.211Z,1076.00
2024-04-25T04:31:21.214Z,1080.00
2024-04-25T04:32:21.365Z,1078.00
2024-04-25T04:33:21.352Z,1070.00
2024-04-25T04:34:21.233Z,1079.00
2024-04-25T04:35:21.230Z,1064.00
2024-04-25T04:36:21.203Z,1073.00
2024-04-25T04:37:21.208Z,1071.00
2024-04-25T04:38:21.213Z,1069.00
2024-04-25T04:39:21.225Z,1067.00
2024-04-25T04:40:21.227Z,1067.00
2024-04-25T04:41:21.238Z,1081.00
2024-04-25T04:42:21.195Z,1077.00
2024-04-25T04:43:21.219Z,1063.00
2024-04-25T04:44:21.237Z,1069.00
2024-04-25T04:45:21.219Z,1069.00
2024-04-25T04:46:21.209Z,1061.00
2024-04-25T04:47:21.308Z,1075.00
2024-04-25T04:48:30.898Z,1070.00
2024-04-25T04:49:22.172Z,1070.00
2024-04-25T04:50:21.193Z,1071.00
2024-04-25T04:51:21.083Z,1062.00
2024-04-25T04:52:21.038Z,1069.00
2024-04-25T04:53:21.019Z,1070.00
2024-04-25T04:54:20.942Z,1066.00
2024-04-25T04:55:20.911Z,1065.00
2024-04-25T04:56:20.874Z,1064.00
2024-04-25T04:57:20.828Z,1069.00
2024-04-25T04:58:20.748Z,1067.00
2024-04-25T04:59:28.143Z,600.00
2024-04-25T05:00:28.118Z,600.00
2024-04-25T05:01:28.116Z,600.00
2024-04-25T05:02:28.177Z,600.00
2024-04-25T05:03:28.148Z,600.00
2024-04-25T05:04:28.091Z,598.00
2024-04-25T05:05:28.128Z,602.00
2024-04-25T05:06:28.066Z,603.00
2024-04-25T05:07:28.231Z,600.00
2024-04-25T05:08:28.066Z,601.00
2024-04-25T05:09:28.028Z,598.00
2024-04-25T05:10:28.029Z,601.00
2024-04-25T05:11:28.056Z,600.00
2024-04-25T05:12:29.385Z,600.00
2024-04-25T05:13:27.924Z,600.00
2024-04-25T05:14:27.938Z,601.00
2024-04-25T05:15:27.876Z,600.00
2024-04-25T05:16:27.936Z,600.00
2024-04-25T05:17:27.858Z,597.00
2024-04-25T05:18:27.844Z,595.00
2024-04-25T05:19:27.779Z,600.00
2024-04-25T05:20:27.822Z,600.00
2024-04-25T05:21:27.738Z,602.00
2024-04-25T05:22:27.717Z,597.00
2024-04-25T05:23:27.727Z,600.00
2024-04-25T05:24:27.671Z,595.00
2024-04-25T05:25:27.635Z,600.00
2024-04-25T05:26:27.687Z,600.00
2024-04-25T05:27:27.581Z,601.00
2024-04-25T05:28:27.550Z,607.00
2024-04-25T05:29:27.546Z,602.00
2024-04-25T05:30:27.500Z,605.00
2024-04-25T05:31:27.598Z,600.00
2024-04-25T05:32:27.622Z,605.00
2024-04-25T05:33:27.487Z,601.00
2024-04-25T05:34:27.405Z,607.00
2024-04-25T05:35:27.425Z,614.00
2024-04-25T05:36:27.341Z,622.00
2024-04-25T05:37:27.325Z,646.00
2024-04-25T05:38:27.343Z,663.00
2024-04-25T05:39:27.368Z,707.00
2024-04-25T05:40:27.335Z,763.00
2024-04-25T05:41:27.411Z,819.00
2024-04-25T05:42:27.388Z,845.00
2024-04-25T05:43:27.399Z,875.00
2024-04-25T05:44:28.269Z,902.00
2024-04-25T05:45:27.479Z,924.00
2024-04-25T05:46:27.501Z,964.00
2024-04-25T05:47:27.587Z,970.00
2024-04-25T05:48:27.656Z,965.00
2024-04-25T05:49:27.565Z,961.00
2024-04-25T05:50:27.629Z,978.00
2024-04-25T05:51:27.599Z,977.00
2024-04-25T05:52:28.585Z,978.00
2024-04-25T05:53:27.556Z,979.00
2024-04-25T05:54:27.485Z,988.00
2024-04-25T05:55:27.523Z,1005.00
2024-04-25T05:56:27.474Z,1018.00
2024-04-25T05:57:27.428Z,1044.00
2024-04-25T05:58:27.365Z,1036.00
2024-04-25T05:59:27.399Z,1042.00
2024-04-25T06:00:27.300Z,1050.00
2024-04-25T06:01:27.306Z,1061.00
2024-04-25T06:02:27.478Z,1068.00
2024-04-25T06:03:27.319Z,1074.00
2024-04-25T06:04:27.308Z,1083.00
2024-04-25T06:05:27.332Z,1072.00
2024-04-25T06:06:27.353Z,1087.00
2024-04-25T06:07:27.395Z,1088.00
2024-04-25T06:08:27.426Z,1089.00
2024-04-25T06:09:27.401Z,1076.00
2024-04-25T06:10:27.505Z,1090.00
2024-04-25T06:11:27.724Z,1099.00
2024-04-25T06:12:27.546Z,1109.00
2024-04-25T06:13:27.454Z,1127.00
2024-04-25T06:14:27.450Z,1143.00
2024-04-25T06:15:27.446Z,1148.00
2024-04-25T06:16:27.509Z,1153.00
2024-04-25T06:17:27.513Z,1149.00
2024-04-25T06:18:27.601Z,1152.00
2024-04-25T06:19:27.498Z,1154.00
2024-04-25T06:20:27.615Z,1141.00
2024-04-25T06:21:27.554Z,1142.00
2024-04-25T06:22:27.587Z,1143.00
2024-04-25T06:23:27.602Z,1143.00
2024-04-25T06:24:27.621Z,1130.00
2024-04-25T06:25:27.651Z,1133.00
2024-04-25T06:26:27.754Z,1114.00
2024-04-25T06:27:27.642Z,1126.00
2024-04-25T06:28:27.702Z,1148.00
2024-04-25T06:29:27.738Z,1171.00
2024-04-25T06:30:27.719Z,1178.00
2024-04-25T06:31:27.723Z,1166.00
2024-04-25T06:32:27.794Z,1171.00
2024-04-25T06:33:27.830Z,1172.00
2024-04-25T06:34:27.783Z,1170.00
2024-04-25T06:35:27.824Z,1148.00
2024-04-25T06:36:27.835Z,1156.00
2024-04-25T06:37:27.836Z,1138.00
2024-04-25T06:38:28.846Z,1129.00
2024-04-25T06:39:27.771Z,1110.00
2024-04-25T06:40:27.783Z,1089.00
2024-04-25T06:41:27.849Z,1076.00
2024-04-25T06:42:27.694Z,1064.00
2024-04-25T06:43:27.642Z,1048.00
2024-04-25T06:44:32.215Z,1045.00
2024-04-25T06:45:28.631Z,1028.00
2024-04-25T06:46:27.555Z,1045.00
2024-04-25T06:47:27.621Z,1022.00
2024-04-25T06:48:27.601Z,1019.00
2024-04-25T06:49:27.557Z,995.00
2024-04-25T06:50:27.475Z,993.00
2024-04-25T06:51:27.401Z,973.00
2024-04-25T06:52:27.397Z,972.00
2024-04-25T06:53:27.372Z,966.00
2024-04-25T06:54:29.745Z,956.00
2024-04-25T06:55:27.260Z,944.00
2024-04-25T06:56:27.364Z,929.00
2024-04-25T06:57:27.218Z,933.00
2024-04-25T06:58:27.174Z,925.00
2024-04-25T06:59:27.190Z,921.00
2024-04-25T07:00:27.087Z,912.00
2024-04-25T07:01:27.050Z,914.00
2024-04-25T07:02:27.040Z,902.00
2024-04-25T07:03:27.000Z,891.00
2024-04-25T07:04:26.946Z,878.00
2024-04-25T07:05:26.980Z,873.00
2024-04-25T07:06:26.876Z,861.00
2024-04-25T07:07:26.830Z,856.00
2024-04-25T07:08:26.920Z,845.00
2024-04-25T07:09:26.775Z,829.00
2024-04-25T07:10:26.727Z,818.00
2024-04-25T07:11:26.787Z,818.00
2024-04-25T07:12:26.730Z,812.00
2024-04-25T07:13:26.625Z,795.00
2024-04-25T07:14:26.625Z,789.00
2024-04-25T07:15:26.575Z,784.00
2024-04-25T07:16:26.544Z,773.00
2024-04-25T07:17:26.579Z,778.00
2024-04-25T07:18:26.609Z,773.00
2024-04-25T07:19:26.434Z,759.00
2024-04-25T07:20:26.435Z,745.00
2024-04-25T07:21:26.355Z,744.00
2024-04-25T07:22:26.318Z,740.00
2024-04-25T07:23:26.315Z,718.00
2024-04-25T07:24:26.261Z,722.00
2024-04-25T07:25:26.258Z,717.00
2024-04-25T07:26:26.217Z,715.00
2024-04-25T07:27:26.192Z,723.00
2024-04-25T07:28:26.139Z,736.00
2024-04-25T07:29:26.144Z,742.00
2024-04-25T07:30:26.053Z,743.00
2024-04-25T07:31:26.048Z,745.00
2024-04-25T07:32:26.066Z,755.00
2024-04-25T07:33:26.083Z,766.00
2024-04-25T07:34:25.926Z,787.00
2024-04-25T07:35:25.974Z,793.00
2024-04-25T07:36:25.857Z,766.00
2024-04-25T07:37:25.950Z,754.00
2024-04-25T07:38:25.909Z,744.00
2024-04-25T07:39:26.364Z,723.00
2024-04-25T07:40:25.779Z,715.00
2024-04-25T07:41:25.782Z,693.00
2024-04-25T07:42:25.735Z,675.00
2024-04-25T07:43:25.728Z,656.00
2024-04-25T07:44:25.744Z,649.00
2024-04-25T07:45:25.810Z,643.00
2024-04-25T07:46:25.724Z,635.00
2024-04-25T07:47:25.790Z,626.00
2024-04-25T07:48:25.838Z,614.00
2024-04-25T07:49:25.793Z,608.00
2024-04-25T07:50:25.794Z,601.00
2024-04-25T07:51:25.734Z,600.00
2024-04-25T07:52:28.299Z,599.00
2024-04-25T07:53:25.749Z,600.00
2024-04-25T07:54:25.705Z,600.00
2024-04-25T07:55:26.305Z,603.00
2024-04-25T07:56:25.667Z,600.00
2024-04-25T07:57:25.607Z,600.00
2024-04-25T07:58:25.587Z,600.00
2024-04-25T07:59:25.596Z,598.00
2024-04-25T08:00:25.546Z,606.00
2024-04-25T08:01:25.512Z,602.00
2024-04-25T08:02:25.569Z,600.00
2024-04-25T08:03:25.813Z,605.00
2024-04-25T08:04:25.480Z,600.00
2024-04-25T08:05:25.430Z,603.00
2024-04-25T08:06:25.387Z,600.00
2024-04-25T08:07:25.373Z,611.00
2024-04-25T08:08:26.213Z,603.00
2024-04-25T08:09:25.345Z,601.00
2024-04-25T08:10:25.285Z,600.00
2024-04-25T08:11:25.361Z,603.00
2024-04-25T08:12:25.234Z,606.00
2024-04-25T08:13:25.244Z,608.00
2024-04-25T08:14:25.222Z,610.00
2024-04-25T08:15:25.186Z,607.00
2024-04-25T08:16:25.196Z,601.00
2024-04-25T08:17:25.183Z,596.00
2024-04-25T08:18:25.131Z,598.00
2024-04-25T08:19:25.087Z,600.00
2024-04-25T08:20:27.243Z,602.00
2024-04-25T08:21:25.160Z,603.00
2024-04-25T08:22:25.169Z,607.00
2024-04-25T08:23:25.759Z,612.00
2024-04-25T08:24:25.157Z,621.00
2024-04-25T08:25:25.697Z,629.00
2024-04-25T08:26:25.256Z,637.00
2024-04-25T08:27:25.141Z,653.00
2024-04-25T08:28:25.160Z,667.00
2024-04-25T08:29:25.138Z,671.00
2024-04-25T08:30:25.146Z,698.00
2024-04-25T08:31:25.148Z,721.00
2024-04-25T08:32:26.433Z,736.00
2024-04-25T08:33:25.302Z,742.00
2024-04-25T08:34:25.364Z,757.00
2024-04-25T08:35:25.255Z,773.00
2024-04-25T08:36:25.874Z,782.00
2024-04-25T08:37:25.245Z,803.00
2024-04-25T08:38:25.841Z,801.00
2024-04-25T08:39:25.333Z,813.00
2024-04-25T08:40:26.275Z,847.00
2024-04-25T08:41:25.378Z,840.00
2024-04-25T08:42:25.336Z,844.00
2024-04-25T08:43:26.246Z,845.00
2024-04-25T08:44:26.291Z,861.00
2024-04-25T08:45:25.387Z,865.00
2024-04-25T08:46:25.371Z,875.00
2024-04-25T08:47:25.432Z,863.00
2024-04-25T08:48:25.538Z,884.00
2024-04-25T08:49:26.247Z,890.00
2024-04-25T08:50:25.403Z,888.00
2024-04-25T08:51:25.344Z,884.00
2024-04-25T08:52:25.378Z,882.00
2024-04-25T08:53:25.426Z,881.00
2024-04-25T08:54:25.366Z,891.00
2024-04-25T08:55:25.902Z,889.00
2024-04-25T08:56:25.358Z,903.00
2024-04-25T08:57:25.350Z,900.00
2024-04-25T08:58:25.324Z,926.00
2024-04-25T08:59:25.321Z,909.00
2024-04-25T09:00:25.300Z,919.00
2024-04-25T09:01:25.291Z,907.00
2024-04-25T09:02:25.338Z,908.00
2024-04-25T09:03:25.396Z,894.00
2024-04-25T09:04:25.281Z,903.00
2024-04-25T09:05:25.294Z,885.00
2024-04-25T09:06:27.072Z,879.00
2024-04-25T09:07:25.213Z,879.00
2024-04-25T09:08:25.284Z,862.00
2024-04-25T09:09:25.161Z,857.00
2024-04-25T09:10:25.112Z,848.00
2024-04-25T09:11:25.241Z,829.00
2024-04-25T09:12:25.064Z,834.00
2024-04-25T09:13:25.009Z,836.00
2024-04-25T09:14:24.961Z,830.00
2024-04-25T09:15:24.923Z,818.00
2024-04-25T09:16:24.992Z,836.00
2024-04-25T09:17:24.866Z,828.00
2024-04-25T09:18:24.872Z,842.00
2024-04-25T09:19:24.742Z,844.00
2024-04-25T09:20:24.738Z,846.00
2024-04-25T09:21:24.678Z,864.00
2024-04-25T09:22:25.271Z,859.00
2024-04-25T09:23:25.381Z,854.00
2024-04-25T09:24:25.263Z,858.00
2024-04-25T09:25:25.297Z,878.00
2024-04-25T09:26:25.380Z,889.00
2024-04-25T09:27:25.481Z,890.00
2024-04-25T09:28:24.408Z,890.00
2024-04-25T09:29:24.408Z,894.00
2024-04-25T09:30:24.333Z,907.00
2024-04-25T09:31:24.766Z,911.00
2024-04-25T09:32:25.320Z,910.00
2024-04-25T09:33:24.224Z,913.00
2024-04-25T09:34:24.847Z,930.00
2024-04-25T09:35:26.321Z,945.00
2024-04-25T09:36:24.038Z,959.00
2024-04-25T09:37:24.008Z,988.00
2024-04-25T09:38:24.036Z,1019.00
2024-04-25T09:39:23.937Z,1044.00
2024-04-25T09:40:23.855Z,1065.00
2024-04-25T09:41:23.834Z,1095.00
2024-04-25T09:42:23.780Z,1120.00
2024-04-25T09:43:23.750Z,1131.00
2024-04-25T09:44:23.838Z,1156.00
2024-04-25T09:45:23.751Z,1160.00
2024-04-25T09:46:23.813Z,1183.00
2024-04-25T09:47:23.795Z,1186.00
2024-04-25T09:48:23.679Z,1179.00
2024-04-25T09:49:24.347Z,1182.00
2024-04-25T09:50:23.672Z,1175.00
2024-04-25T09:51:23.606Z,1168.00
2024-04-25T09:52:23.604Z,1163.00
2024-04-25T09:53:25.287Z,1146.00
2024-04-25T09:54:23.560Z,1140.00
2024-04-25T09:55:24.507Z,1131.00
2024-04-25T09:56:23.501Z,1123.00
2024-04-25T09:57:23.417Z,1114.00
2024-04-25T09:58:23.398Z,1093.00
2024-04-25T09:59:23.345Z,1063.00
2024-04-25T10:00:23.345Z,1039.00
2024-04-25T10:01:24.258Z,1030.00
2024-04-25T10:02:23.947Z,988.00
2024-04-25T10:03:23.156Z,970.00
2024-04-25T10:04:23.281Z,948.00
2024-04-25T10:05:23.173Z,930.00
2024-04-25T10:06:23.071Z,921.00
2024-04-25T10:07:23.035Z,885.00
2024-04-25T10:08:23.000Z,870.00
2024-04-25T10:09:22.931Z,861.00
2024-04-25T10:10:22.864Z,878.00
2024-04-25T10:11:22.879Z,889.00
2024-04-25T10:12:22.799Z,889.00
2024-04-25T10:13:22.735Z,881.00
2024-04-25T10:14:22.707Z,873.00
2024-04-25T10:15:22.750Z,863.00
2024-04-25T10:16:22.736Z,850.00
2024-04-25T10:17:22.723Z,848.00
2024-04-25T10:18:22.808Z,829.00
2024-04-25T10:19:22.694Z,803.00
2024-04-25T10:20:22.743Z,803.00
2024-04-25T10:21:22.719Z,768.00
2024-04-25T10:22:22.737Z,755.00
2024-04-25T10:23:22.729Z,732.00
2024-04-25T10:24:22.743Z,717.00
2024-04-25T10:25:22.724Z,697.00
2024-04-25T10:26:22.846Z,689.00
2024-04-25T10:27:22.759Z,668.00
2024-04-25T10:28:22.787Z,663.00
2024-04-25T10:29:22.790Z,661.00
2024-04-25T10:30:23.367Z,654.00
2024-04-25T10:31:22.806Z,657.00
2024-04-25T10:32:22.973Z,655.00
2024-04-25T10:33:22.945Z,653.00
2024-04-25T10:34:22.890Z,655.00
2024-04-25T10:35:22.934Z,654.00
2024-04-25T10:36:22.881Z,648.00
2024-04-25T10:37:22.917Z,656.00
2024-04-25T10:38:22.961Z,651.00
2024-04-25T10:39:23.131Z,639.00
2024-04-25T10:40:22.943Z,638.00
2024-04-25T10:41:22.977Z,628.00
2024-04-25T10:42:22.964Z,628.00
2024-04-25T10:43:22.987Z,615.00
2024-04-25T10:44:23.027Z,623.00
2024-04-25T10:45:23.009Z,610.00
2024-04-25T10:46:23.034Z,616.00
2024-04-25T10:47:23.132Z,603.00
2024-04-25T10:48:23.223Z,602.00
2024-04-25T10:49:23.189Z,603.00
2024-04-25T10:50:23.098Z,604.00
2024-04-25T10:51:23.090Z,601.00
2024-04-25T10:52:23.081Z,610.00
2024-04-25T10:53:23.104Z,600.00
2024-04-25T10:54:23.116Z,600.00
2024-04-25T10:55:23.173Z,600.00
2024-04-25T10:56:23.135Z,603.00
2024-04-25T10:57:23.175Z,603.00
2024-04-25T10:58:23.170Z,600.00
2024-04-25T10:59:23.188Z,607.00
2024-04-25T11:00:23.165Z,601.00
2024-04-25T11:01:23.184Z,608.00
2024-04-25T11:02:23.182Z,602.00
2024-04-25T11:03:23.239Z,600.00
2024-04-25T11:04:23.150Z,602.00
2024-04-25T11:05:23.210Z,600.00
2024-04-25T11:06:23.141Z,603.00
2024-04-25T11:07:23.131Z,600.00
2024-04-25T11:08:23.148Z,604.00
2024-04-25T11:09:23.102Z,601.00
2024-04-25T11:10:23.107Z,601.00
2024-04-25T11:11:23.379Z,600.00
2024-04-25T11:12:23.144Z,600.00
2024-04-25T11:13:23.122Z,600.00
2024-04-25T11:14:23.134Z,600.00
2024-04-25T11:15:23.093Z,603.00
2024-04-25T11:16:23.067Z,603.00
2024-04-25T11:17:23.097Z,603.00
2024-04-25T11:18:25.899Z,601.00
2024-04-25T11:20:23.177Z,600.00
2024-04-25T11:21:23.251Z,605.00
2024-04-25T11:22:30.655Z,601.00
2024-04-25T11:23:24.050Z,601.00
2024-04-25T11:24:23.259Z,597.00
2024-04-25T11:25:22.813Z,595.00
2024-04-25T11:26:22.796Z,590.00
2024-04-25T11:27:22.752Z,583.00
2024-04-25T11:28:22.715Z,601.00
2024-04-25T11:29:22.715Z,600.00
2024-04-25T11:30:22.666Z,603.00
2024-04-25T11:31:22.614Z,604.00
2024-04-25T11:32:22.655Z,601.00
2024-04-25T11:33:23.702Z,599.00
2024-04-25T11:34:22.570Z,597.00
2024-04-25T11:35:22.523Z,585.00
2024-04-25T11:36:22.443Z,582.00
2024-04-25T11:37:22.409Z,578.00
2024-04-25T11:38:22.523Z,600.00
2024-04-25T11:39:22.335Z,605.00
2024-04-25T11:40:22.300Z,605.00
2024-04-25T11:41:22.320Z,603.00
2024-04-25T11:42:22.239Z,605.00
2024-04-25T11:43:22.227Z,601.00
2024-04-25T11:44:22.218Z,605.00
2024-04-25T11:45:22.724Z,601.00
2024-04-25T11:46:22.153Z,604.00
2024-04-25T11:47:22.227Z,606.00
2024-04-25T11:48:22.372Z,601.00
2024-04-25T11:49:22.140Z,603.00
2024-04-25T11:50:22.123Z,603.00
2024-04-25T11:51:22.118Z,605.00
2024-04-25T11:52:22.114Z,604.00
2024-04-25T11:53:22.179Z,603.00
2024-04-25T11:54:22.096Z,605.00
2024-04-25T11:55:22.098Z,601.00
2024-04-25T11:56:22.088Z,605.00
2024-04-25T11:57:22.093Z,607.00
2024-04-25T11:58:22.036Z,604.00
2024-04-25T11:59:22.088Z,600.00
2024-04-25T12:00:22.028Z,605.00
2024-04-25T12:01:22.036Z,603.00
2024-04-25T12:02:22.087Z,600.00
2024-04-25T12:03:22.085Z,600.00
2024-04-25T12:04:22.049Z,609.00
2024-04-25T12:05:22.021Z,606.00
2024-04-25T12:06:21.995Z,623.00
2024-04-25T12:07:21.966Z,627.00
2024-04-25T12:08:22.001Z,633.00
2024-04-25T12:09:21.936Z,643.00
2024-04-25T12:10:21.949Z,657.00
2024-04-25T12:11:21.946Z,679.00
2024-04-25T12:12:22.021Z,704.00
2024-04-25T12:13:21.956Z,737.00
2024-04-25T12:14:21.985Z,750.00
2024-04-25T12:15:22.105Z,799.00
2024-04-25T12:16:22.014Z,814.00
2024-04-25T12:17:22.055Z,832.00